In Rescue
 
Open Full Screen Window  High Contrast Mode
Wind Gusting 00 knots
04
July 25, 2021 8:58 AM EDT
Weather Information
Wind Direction
  250 °
Wind Speed
  04 kt (5 mph)
Wind Gust
  00 kt (0 mph)
Altimeter
29.97 in
Visibility
4 SM
Temperature
24° C
75° F
Dewpoint
24° C
75° F
Humidity
100%
1hr Rain Fall
00.00 in.
24hr Rain Fall
00.80 in.
Sky Condition
Overcast @ 1,100 ft
MVFR

METAR KI19 251258Z AUTO 25004KT 4SM OVC011 24/24 A2997 RMK AO2 LTG DSNT W T02350235 PWINO

FAA Disclaimer: The data displayed is for advisory purposes only and is not to be used for flight planning or operations.